Weather History for KPAN - April, 2013

Change the Weather History Date:

Sunday, April 28, 2013

  Actual Average Record
Temperature  
Mean Temperature 63 °F -  
Max Temperature 80 °F 73 °F 80 °F (2013)
Min Temperature 46 °F 37 °F 37 °F (2014)
Degree Days  
Heating Degree Days 2    
Growing Degree Days 13 (Base 50)    
Moisture  
Dew Point 10 °F    
Average Humidity 12    
Maximum Humidity 25    
Minimum Humidity 6    
Precipitation  
Precipitation 0.00 in - - ()
Sea Level Pressure  
Sea Level Pressure 30.07 in    
Wind  
Wind Speed 4 mph (WNW)    
Max Wind Speed 13 mph    
Max Gust Speed 18 mph    
Visibility 10 miles    
Events      
Averages and records for this station are not official NWS values.
T = Trace of Precipitation, MM = Missing Value Source: NWS Daily Summary

Daily Weather History Graph

Daily Weather History Graph

Search for Another Location

Airport or City:

Trip Planner

Search our weather history database for the weather conditions in past years. The results will help you decide how hot, cold, wet, or windy it might be!

Date:

Astronomy

Apr. 28, 2013 Rise Set
Actual Time 5:38 AM MST 7:07 PM MST
Civil Twilight 5:12 AM MST 7:34 PM MST
Nautical Twilight 4:40 AM MST 8:06 PM MST
Astronomical Twilight 4:06 AM MST 8:39 PM MST
Moon 10:36 PM MST (4/28) 8:03 AM MST (4/28)
Length of Visible Light 14h 22m
Length of Day
13h 28m
Waning Gibbous, 88% of the Moon is Illuminated
Apr 28
Waning Gibbous
May 2
Last Quarter
May 9
New
May 17
First Quarter
May 24
Full

Hourly Weather History & Observations

Time (MST) Temp. Windchill Dew Point Humidity Pressure Visibility Wind Dir Wind Speed Gust Speed Precip Events Conditions
12:15 AM 57.2 °F - 8.6 °F 14% 30.14 in 10.0 mi Calm Calm - N/A   Clear
12:35 AM 55.4 °F - 12.2 °F 18% 30.14 in 10.0 mi Calm Calm - N/A   Clear
12:55 AM 55.4 °F - 12.2 °F 18% 30.14 in 10.0 mi Calm Calm - N/A   Clear
1:15 AM 55.4 °F - 14.0 °F 20% 30.13 in 10.0 mi Calm Calm - N/A   Clear
1:35 AM 53.6 °F - 14.0 °F 21% 30.12 in 10.0 mi Calm Calm - N/A   Clear
1:55 AM 53.6 °F - 12.2 °F 19% 30.12 in 10.0 mi NW 4.6 mph - N/A   Clear
2:15 AM 50.0 °F - 12.2 °F 22% 30.12 in 10.0 mi Calm Calm - N/A   Clear
2:35 AM 48.2 °F - 12.2 °F 24% 30.12 in 10.0 mi NW 3.5 mph - N/A   Clear
2:55 AM 50.0 °F - 12.2 °F 22% 30.11 in 10.0 mi WNW 4.6 mph - N/A   Clear
3:15 AM 51.8 °F - 10.4 °F 19% 30.11 in 10.0 mi WNW 5.8 mph - N/A   Clear
3:35 AM 51.8 °F - 10.4 °F 19% 30.11 in 10.0 mi NW 4.6 mph - N/A   Clear
3:55 AM 50.0 °F - 12.2 °F 22% 30.11 in 10.0 mi NW 6.9 mph - N/A   Clear
4:15 AM 48.2 °F - 10.4 °F 22% 30.11 in 10.0 mi NNW 4.6 mph - N/A   Clear
4:35 AM 46.4 °F 43.5 °F 12.2 °F 25% 30.10 in 10.0 mi North 5.8 mph - N/A   Clear
4:55 AM 53.6 °F - 5.0 °F 14% 30.11 in 10.0 mi North 6.9 mph - N/A   Clear
5:15 AM 55.4 °F - 3.2 °F 12% 30.11 in 10.0 mi North 5.8 mph - N/A   Clear
5:35 AM 55.4 °F - 3.2 °F 12% 30.11 in 10.0 mi North 5.8 mph - N/A   Clear
6:15 AM 53.6 °F - 6.8 °F 15% 30.11 in 10.0 mi NNE 4.6 mph - N/A   Clear
6:35 AM 55.4 °F - 10.4 °F 17% 30.12 in 10.0 mi NNE 4.6 mph - N/A   Clear
6:55 AM 60.8 °F - 10.4 °F 14% 30.12 in 10.0 mi NNE 3.5 mph - N/A   Clear
7:15 AM 60.8 °F - 14.0 °F 16% 30.12 in 10.0 mi NNE 3.5 mph - N/A   Clear
7:35 AM 62.6 °F - 15.8 °F 16% 30.12 in 10.0 mi North 3.5 mph - N/A   Clear
7:55 AM 66.2 °F - 14.0 °F 13% 30.12 in 10.0 mi NNE 6.9 mph - N/A   Clear
8:15 AM 69.8 °F - 14.0 °F 12% 30.12 in 10.0 mi NNE 8.1 mph - N/A   Clear
8:35 AM 69.8 °F - 14.0 °F 12% 30.12 in 10.0 mi NE 5.8 mph - N/A   Clear
8:55 AM 71.6 °F - 14.0 °F 11% 30.12 in 10.0 mi NE 6.9 mph - N/A   Clear
9:15 AM 73.4 °F - 10.4 °F 9% 30.12 in 10.0 mi North 6.9 mph - N/A   Clear
9:35 AM 73.4 °F - 5.0 °F 7% 30.12 in 10.0 mi NE 5.8 mph - N/A   Clear
9:55 AM 73.4 °F - 5.0 °F 7% 30.12 in 10.0 mi SSE 4.6 mph - N/A   Clear
10:15 AM 75.2 °F - 8.6 °F 8% 30.12 in 10.0 mi Calm Calm - N/A   Clear
10:35 AM 75.2 °F - 5.0 °F 7% 30.12 in 10.0 mi North 5.8 mph - N/A   Clear
10:55 AM 77.0 °F - 3.2 °F 6% 30.12 in 10.0 mi ESE 6.9 mph - N/A   Clear
11:15 AM 75.2 °F - 6.8 °F 7% 30.11 in 10.0 mi West 4.6 mph - N/A   Clear
11:35 AM 75.2 °F - 8.6 °F 8% 30.10 in 10.0 mi South 8.1 mph - N/A   Clear
11:55 AM 75.2 °F - 8.6 °F 8% 30.10 in 10.0 mi South 6.9 mph - N/A   Clear
12:15 PM 75.2 °F - 8.6 °F 8% 30.09 in 10.0 mi WNW 3.5 mph - N/A   Clear
12:35 PM 78.8 °F - 8.6 °F 7% 30.09 in 10.0 mi South 5.8 mph - N/A   Scattered Clouds
12:55 PM 78.8 °F - 6.8 °F 6% 30.08 in 10.0 mi SSW 8.1 mph - N/A   Partly Cloudy
1:15 PM 78.8 °F - 6.8 °F 6% 30.07 in 10.0 mi South 5.8 mph - N/A   Clear
1:35 PM 78.8 °F - 8.6 °F 7% 30.06 in 10.0 mi WSW 11.5 mph 17.3 mph N/A   Partly Cloudy
1:55 PM 78.8 °F - 6.8 °F 6% 30.06 in 6.0 mi WSW 5.8 mph - N/A   Partly Cloudy
2:15 PM 78.8 °F - 10.4 °F 7% 30.05 in 10.0 mi West 10.4 mph - N/A   Clear
2:35 PM 78.8 °F - 8.6 °F 7% 30.04 in 10.0 mi WSW 5.8 mph - N/A   Clear
2:55 PM 78.8 °F - 6.8 °F 6% 30.03 in 10.0 mi SSW 6.9 mph 17.3 mph N/A   Clear
3:15 PM 78.8 °F - 6.8 °F 6% 30.02 in 10.0 mi WSW 10.4 mph 17.3 mph N/A   Partly Cloudy
3:35 PM 78.8 °F - 6.8 °F 6% 30.01 in 10.0 mi West 10.4 mph 16.1 mph N/A   Clear
3:55 PM 78.8 °F - 6.8 °F 6% 30.01 in 10.0 mi WSW 9.2 mph - N/A   Clear
4:15 PM 80.6 °F - 6.8 °F 6% 30.00 in 10.0 mi West 12.7 mph 18.4 mph N/A   Clear
4:35 PM 78.8 °F - 6.8 °F 6% 30.00 in 10.0 mi WSW 10.4 mph 17.3 mph N/A   Clear
4:55 PM 78.8 °F - 5.0 °F 6% 29.99 in 10.0 mi WSW 9.2 mph 16.1 mph N/A   Clear
5:15 PM 78.8 °F - 6.8 °F 6% 29.99 in 10.0 mi West 8.1 mph - N/A   Clear
5:35 PM 78.8 °F - 5.0 °F 6% 29.98 in 10.0 mi WSW 5.8 mph - N/A   Clear
5:55 PM 78.8 °F - 5.0 °F 6% 29.98 in 10.0 mi West 8.1 mph - N/A   Clear
6:15 PM 78.8 °F - 6.8 °F 6% 29.98 in 10.0 mi WSW 8.1 mph - N/A   Clear
6:35 PM 77.0 °F - 8.6 °F 7% 29.98 in 10.0 mi WSW 6.9 mph - N/A   Clear
6:55 PM 73.4 °F - 10.4 °F 9% 29.98 in 10.0 mi West 8.1 mph - N/A   Clear
7:15 PM 73.4 °F - 10.4 °F 9% 29.99 in 10.0 mi WSW 6.9 mph - N/A   Clear
7:35 PM 69.8 °F - 14.0 °F 12% 29.99 in 10.0 mi West 5.8 mph - N/A   Clear
7:55 PM 69.8 °F - 14.0 °F 12% 29.99 in 10.0 mi West 6.9 mph - N/A   Clear
8:15 PM 69.8 °F - 12.2 °F 11% 30.00 in 10.0 mi West 6.9 mph - N/A   Clear
8:35 PM 66.2 °F - 14.0 °F 13% 30.00 in 10.0 mi WNW 3.5 mph - N/A   Clear
8:55 PM 64.4 °F - 14.0 °F 14% 30.01 in 10.0 mi WNW 3.5 mph - N/A   Clear
9:15 PM 62.6 °F - 14.0 °F 15% 30.02 in 10.0 mi NW 5.8 mph - N/A   Clear
9:35 PM 62.6 °F - 14.0 °F 15% 30.02 in 10.0 mi Calm Calm - N/A   Clear
9:55 PM 64.4 °F - 14.0 °F 14% 30.02 in 10.0 mi NE 4.6 mph - N/A   Clear
10:15 PM 66.2 °F - 12.2 °F 12% 30.02 in 10.0 mi NE 3.5 mph - N/A   Clear
10:35 PM 62.6 °F - 15.8 °F 16% 30.03 in 10.0 mi Calm Calm - N/A   Clear
10:55 PM 59.0 °F - 17.6 °F 20% 30.03 in 10.0 mi Calm Calm - N/A   Clear
11:15 PM 59.0 °F - 17.6 °F 20% 30.03 in 10.0 mi Calm Calm - N/A   Clear
11:35 PM 60.8 °F - 14.0 °F 16% 30.03 in 10.0 mi NNE 3.5 mph - N/A   Clear
11:55 PM 59.0 °F - 17.6 °F 20% 30.03 in 10.0 mi WNW 3.5 mph - N/A   Clear